createdAt,value
2023-01-12T00:00:23.326Z,967.29
2023-01-12T00:01:14.517Z,967.31
2023-01-12T00:05:15.710Z,967.21
2023-01-12T00:06:20.375Z,967.2
2023-01-12T00:07:17.344Z,967.18
2023-01-12T00:08:23.369Z,967.13
2023-01-12T00:09:17.377Z,967.16
2023-01-12T00:12:13.013Z,967.16
2023-01-12T00:13:17.681Z,967.15
2023-01-12T00:14:13.347Z,967.17
2023-01-12T00:15:13.127Z,967.09
2023-01-12T00:16:13.133Z,967.1
2023-01-12T00:17:12.991Z,967.08
2023-01-12T00:18:13.937Z,967.09
2023-01-12T00:19:12.978Z,967.07
2023-01-12T00:20:13.054Z,967.08
2023-01-12T00:25:13.156Z,967.06
2023-01-12T00:26:13.086Z,967.04
2023-01-12T00:27:13.140Z,967.06
2023-01-12T00:28:13.101Z,967.04
2023-01-12T00:29:13.072Z,967.08
2023-01-12T00:30:13.152Z,967.03
2023-01-12T00:31:13.052Z,967.08
2023-01-12T00:32:13.016Z,967.04
2023-01-12T00:33:13.011Z,967.05
2023-01-12T00:34:13.135Z,967.04
2023-01-12T00:35:13.085Z,967.03
2023-01-12T00:36:14.042Z,967.01
2023-01-12T00:37:13.133Z,966.99
2023-01-12T00:38:13.080Z,967.01
2023-01-12T00:39:13.042Z,966.99
2023-01-12T00:40:13.126Z,967
2023-01-12T00:41:13.033Z,967.03
2023-01-12T00:42:13.037Z,966.97
2023-01-12T00:43:13.031Z,967.03
2023-01-12T00:44:13.035Z,967.06
2023-01-12T00:45:13.045Z,967.05
2023-01-12T00:46:13.216Z,967.04
2023-01-12T00:47:13.056Z,967.07
2023-01-12T00:49:13.092Z,967.05
2023-01-12T00:51:13.173Z,967.06
2023-01-12T00:52:15.607Z,967.05
2023-01-12T00:53:13.069Z,967.07
2023-01-12T00:54:13.069Z,967.1
2023-01-12T00:55:13.148Z,967.09
2023-01-12T00:56:14.610Z,967.12
2023-01-12T00:57:13.067Z,967.09
2023-01-12T00:59:13.089Z,967.1
2023-01-12T01:00:13.185Z,967.11
2023-01-12T01:02:13.405Z,967.1
2023-01-12T01:05:13.096Z,967.11
2023-01-12T01:06:13.081Z,967.1
2023-01-12T01:07:13.153Z,967.12
2023-01-12T01:08:13.121Z,967.1
2023-01-12T01:09:13.099Z,967.09
2023-01-12T01:12:13.095Z,967.12
2023-01-12T01:13:13.179Z,967.08
2023-01-12T01:16:14.297Z,967.06
2023-01-12T01:18:13.216Z,967.05
2023-01-12T01:19:13.273Z,967.04
2023-01-12T01:20:13.201Z,967.07
2023-01-12T01:21:13.226Z,967.03
2023-01-12T01:22:13.292Z,967.05
2023-01-12T01:23:13.122Z,967.06
2023-01-12T01:24:13.237Z,967.08
2023-01-12T01:25:13.136Z,967.11
2023-01-12T01:26:13.143Z,967.09
2023-01-12T01:27:13.218Z,967.11
2023-01-12T01:28:13.286Z,967.15
2023-01-12T01:30:13.228Z,967.18
2023-01-12T01:31:13.334Z,967.21
2023-01-12T01:32:13.153Z,967.18
2023-01-12T01:33:13.145Z,967.21
2023-01-12T01:34:13.164Z,967.23
2023-01-12T01:35:13.275Z,967.19
2023-01-12T01:36:13.228Z,967.18
2023-01-12T01:37:14.300Z,967.22
2023-01-12T01:38:13.156Z,967.15
2023-01-12T01:39:13.226Z,967.11
2023-01-12T01:40:13.299Z,967.2
2023-01-12T01:41:13.271Z,967.13
2023-01-12T01:42:13.226Z,967.07
2023-01-12T01:43:13.180Z,967.14
2023-01-12T01:45:13.251Z,967.15
2023-01-12T01:46:13.185Z,967.12
2023-01-12T01:47:13.129Z,967.06
2023-01-12T01:48:13.176Z,967.04
2023-01-12T01:49:13.312Z,967.01
2023-01-12T01:51:13.235Z,967
2023-01-12T01:52:13.225Z,967.01
2023-01-12T01:53:13.181Z,966.95
2023-01-12T01:54:13.353Z,966.99
2023-01-12T01:55:13.240Z,966.93
2023-01-12T01:56:13.201Z,966.95
2023-01-12T01:57:13.370Z,966.92
2023-01-12T01:59:13.202Z,966.93
2023-01-12T02:00:13.246Z,966.94
2023-01-12T02:01:13.359Z,966.95
2023-01-12T02:02:13.304Z,966.99
2023-01-12T02:03:14.415Z,966.98
2023-01-12T02:04:13.330Z,967.01
2023-01-12T02:05:13.231Z,967.02
2023-01-12T02:06:13.370Z,966.99
2023-01-12T02:07:13.255Z,966.96
2023-01-12T02:08:13.227Z,966.99
2023-01-12T02:09:13.375Z,967
2023-01-12T02:10:13.239Z,966.97
2023-01-12T02:11:13.239Z,966.99
2023-01-12T02:12:13.374Z,966.97
2023-01-12T02:13:13.236Z,967.01
2023-01-12T02:14:13.307Z,966.96
2023-01-12T02:15:14.524Z,966.98
2023-01-12T02:16:13.362Z,967.01
2023-01-12T02:17:13.318Z,966.98
2023-01-12T02:18:13.255Z,967.01
2023-01-12T02:19:13.249Z,966.97
2023-01-12T02:20:13.423Z,967
2023-01-12T02:21:13.266Z,966.91
2023-01-12T02:23:13.546Z,966.89
2023-01-12T02:24:13.288Z,966.9
2023-01-12T02:25:13.368Z,966.92
2023-01-12T02:26:13.427Z,966.91
2023-01-12T02:27:13.292Z,966.93
2023-01-12T02:28:13.366Z,966.9
2023-01-12T02:29:13.437Z,966.88
2023-01-12T02:30:13.306Z,966.9
2023-01-12T02:32:13.286Z,966.92
2023-01-12T02:33:13.300Z,966.94
2023-01-12T02:34:13.383Z,966.95
2023-01-12T02:36:13.509Z,966.97
2023-01-12T02:37:13.393Z,967.03
2023-01-12T02:38:14.574Z,967.02
2023-01-12T02:39:13.421Z,967
2023-01-12T02:40:13.382Z,967.03
2023-01-12T02:41:13.303Z,967.09
2023-01-12T02:42:13.320Z,967.15
2023-01-12T02:43:13.315Z,967.17
2023-01-12T02:44:13.307Z,967.15
2023-01-12T02:45:13.415Z,967.13
2023-01-12T02:46:13.447Z,967.14
2023-01-12T02:47:13.453Z,967.12
2023-01-12T02:48:13.435Z,967.09
2023-01-12T02:50:13.459Z,967.04
2023-01-12T02:51:13.420Z,967.08
2023-01-12T02:52:13.398Z,967.03
2023-01-12T02:53:13.339Z,966.99
2023-01-12T02:55:13.492Z,966.9
2023-01-12T02:56:13.468Z,966.92
2023-01-12T02:57:13.455Z,966.9
2023-01-12T02:58:13.509Z,966.86
2023-01-12T02:59:13.356Z,966.89
2023-01-12T03:00:13.353Z,966.84
2023-01-12T03:01:13.429Z,966.86
2023-01-12T03:02:13.353Z,966.85
2023-01-12T03:03:13.428Z,966.78
2023-01-12T03:04:13.512Z,966.76
2023-01-12T03:05:13.420Z,966.73
2023-01-12T03:06:13.450Z,966.74
2023-01-12T03:07:13.370Z,966.68
2023-01-12T03:08:13.476Z,966.66
2023-01-12T03:09:13.448Z,966.65
2023-01-12T03:10:13.525Z,966.62
2023-01-12T03:11:13.491Z,966.6
2023-01-12T03:12:13.446Z,966.61
2023-01-12T03:13:13.530Z,966.55
2023-01-12T03:14:13.487Z,966.54
2023-01-12T03:15:13.381Z,966.5
2023-01-12T03:16:13.432Z,966.51
2023-01-12T03:17:13.499Z,966.47
2023-01-12T03:18:13.466Z,966.43
2023-01-12T03:19:13.533Z,966.41
2023-01-12T03:20:13.510Z,966.42
2023-01-12T03:21:13.391Z,966.38
2023-01-12T03:22:13.537Z,966.36
2023-01-12T03:23:13.504Z,966.35
2023-01-12T03:24:13.477Z,966.37
2023-01-12T03:25:13.408Z,966.34
2023-01-12T03:27:13.543Z,966.35
2023-01-12T03:28:13.433Z,966.36
2023-01-12T03:29:13.520Z,966.34
2023-01-12T03:30:13.587Z,966.33
2023-01-12T03:31:13.479Z,966.39
2023-01-12T03:32:13.527Z,966.43
2023-01-12T03:33:13.429Z,966.44
2023-01-12T03:34:13.569Z,966.48
2023-01-12T03:35:13.546Z,966.49
2023-01-12T03:36:13.437Z,966.51
2023-01-12T03:37:13.573Z,966.52
2023-01-12T03:40:13.520Z,966.47
2023-01-12T03:42:13.469Z,966.48
2023-01-12T03:43:13.571Z,966.49
2023-01-12T03:44:13.530Z,966.44
2023-01-12T03:45:13.468Z,966.47
2023-01-12T03:46:13.584Z,966.46
2023-01-12T03:47:13.535Z,966.47
2023-01-12T03:48:13.614Z,966.51
2023-01-12T03:49:13.573Z,966.54
2023-01-12T03:50:13.638Z,966.53
2023-01-12T03:51:14.886Z,966.52
2023-01-12T03:52:13.586Z,966.46
2023-01-12T03:54:13.476Z,966.45
2023-01-12T03:55:13.481Z,966.46
2023-01-12T03:56:13.555Z,966.49
2023-01-12T03:57:13.625Z,966.56
2023-01-12T03:58:13.495Z,966.57
2023-01-12T03:59:13.682Z,966.54
2023-01-12T04:00:13.631Z,966.48
2023-01-12T04:01:13.681Z,966.47
2023-01-12T04:02:13.481Z,966.48
2023-01-12T04:03:13.684Z,966.44
2023-01-12T04:05:13.614Z,966.41
2023-01-12T04:06:13.540Z,966.39
2023-01-12T04:07:13.615Z,966.36
2023-01-12T04:08:13.671Z,966.32
2023-01-12T04:09:13.639Z,966.28
2023-01-12T04:10:13.613Z,966.21
2023-01-12T04:12:13.562Z,966.17
2023-01-12T04:13:13.618Z,966.16
2023-01-12T04:14:13.538Z,966.17
2023-01-12T04:15:13.676Z,966.16
2023-01-12T04:16:13.564Z,966.2
2023-01-12T04:17:13.683Z,966.25
2023-01-12T04:18:13.559Z,966.24
2023-01-12T04:19:13.619Z,966.28
2023-01-12T04:20:13.542Z,966.26
2023-01-12T04:21:13.543Z,966.27
2023-01-12T04:22:13.535Z,966.31
2023-01-12T04:24:13.555Z,966.33
2023-01-12T04:26:13.546Z,966.37
2023-01-12T04:27:13.547Z,966.38
2023-01-12T04:28:13.627Z,966.39
2023-01-12T04:29:13.688Z,966.4
2023-01-12T04:30:13.662Z,966.38
2023-01-12T04:32:14.657Z,966.39
2023-01-12T04:33:13.701Z,966.38
2023-01-12T04:34:13.744Z,966.44
2023-01-12T04:37:13.769Z,966.5
2023-01-12T04:38:13.719Z,966.52
2023-01-12T04:40:13.603Z,966.53
2023-01-12T04:41:13.588Z,966.54
2023-01-12T04:43:13.643Z,966.5
2023-01-12T04:45:13.687Z,966.56
2023-01-12T04:47:13.796Z,966.57
2023-01-12T04:48:13.705Z,966.63
2023-01-12T04:49:13.763Z,966.59
2023-01-12T04:50:13.613Z,966.58
2023-01-12T04:51:13.683Z,966.57
2023-01-12T04:52:14.668Z,966.61
2023-01-12T04:53:13.873Z,966.57
2023-01-12T04:54:13.623Z,966.61
2023-01-12T04:55:13.778Z,966.6
2023-01-12T04:56:13.733Z,966.56
2023-01-12T04:57:13.626Z,966.58
2023-01-12T04:58:13.766Z,966.52
2023-01-12T04:59:13.752Z,966.54
2023-01-12T05:00:13.709Z,966.5
2023-01-12T05:02:13.792Z,966.49
2023-01-12T05:03:13.832Z,966.51
2023-01-12T05:04:13.743Z,966.49
2023-01-12T05:05:13.745Z,966.48
2023-01-12T05:06:13.818Z,966.44
2023-01-12T05:08:13.666Z,966.46
2023-01-12T05:09:13.705Z,966.51
2023-01-12T05:10:13.662Z,966.5
2023-01-12T05:12:13.813Z,966.48
2023-01-12T05:13:13.666Z,966.47
2023-01-12T05:14:13.759Z,966.44
2023-01-12T05:15:13.817Z,966.42
2023-01-12T05:16:13.839Z,966.43
2023-01-12T05:18:13.758Z,966.45
2023-01-12T05:19:13.815Z,966.47
2023-01-12T05:20:13.767Z,966.5
2023-01-12T05:21:13.850Z,966.54
2023-01-12T05:22:13.808Z,966.56
2023-01-12T05:23:13.759Z,966.55
2023-01-12T05:24:13.704Z,966.59
2023-01-12T05:25:13.805Z,966.65
2023-01-12T05:27:13.707Z,966.66
2023-01-12T05:28:13.816Z,966.62
2023-01-12T05:29:13.787Z,966.61
2023-01-12T05:31:13.733Z,966.6
2023-01-12T05:32:13.777Z,966.57
2023-01-12T05:33:13.853Z,966.55
2023-01-12T05:34:13.718Z,966.47
2023-01-12T05:35:13.786Z,966.5
2023-01-12T05:36:13.864Z,966.48
2023-01-12T05:38:13.795Z,966.49
2023-01-12T05:39:13.752Z,966.43
2023-01-12T05:40:13.834Z,966.47
2023-01-12T05:41:13.787Z,966.54
2023-01-12T05:42:13.713Z,966.51
2023-01-12T05:43:13.832Z,966.53
2023-01-12T05:44:13.886Z,966.57
2023-01-12T05:46:13.843Z,966.62
2023-01-12T05:48:13.773Z,966.6
2023-01-12T05:49:13.842Z,966.61
2023-01-12T05:51:13.765Z,966.68
2023-01-12T05:52:13.853Z,966.72
2023-01-12T05:53:14.985Z,966.74
2023-01-12T05:54:13.869Z,966.71
2023-01-12T05:55:13.846Z,966.79
2023-01-12T05:56:13.782Z,966.78
2023-01-12T05:57:13.783Z,966.71
2023-01-12T05:58:13.840Z,966.74
2023-01-12T05:59:13.913Z,966.75
2023-01-12T06:00:13.883Z,966.76
2023-01-12T06:01:13.903Z,966.79
2023-01-12T06:02:14.004Z,966.8
2023-01-12T06:03:13.881Z,966.78
2023-01-12T06:04:13.906Z,966.73
2023-01-12T06:05:13.841Z,966.7
2023-01-12T06:06:13.882Z,966.65
2023-01-12T06:08:13.793Z,966.69
2023-01-12T06:09:13.891Z,966.74
2023-01-12T06:10:13.863Z,966.72
2023-01-12T06:11:13.926Z,966.71
2023-01-12T06:13:13.939Z,966.68
2023-01-12T06:14:13.862Z,966.69
2023-01-12T06:16:18.104Z,966.66
2023-01-12T06:17:24.095Z,966.68
2023-01-12T06:19:19.653Z,966.74
2023-01-12T06:21:18.114Z,966.73
2023-01-12T06:22:24.131Z,966.72
2023-01-12T06:23:15.150Z,966.67
2023-01-12T06:24:13.918Z,966.71
2023-01-12T06:25:15.153Z,966.63
2023-01-12T06:26:15.656Z,966.6
2023-01-12T06:27:19.677Z,966.59
2023-01-12T06:28:13.856Z,966.53
2023-01-12T06:29:15.195Z,966.54
2023-01-12T06:30:15.218Z,966.58
2023-01-12T06:31:24.259Z,966.57
2023-01-12T06:32:28.188Z,966.54
2023-01-12T06:33:18.237Z,966.53
2023-01-12T06:34:15.415Z,966.5
2023-01-12T06:35:24.256Z,966.47
2023-01-12T06:37:16.073Z,966.45
2023-01-12T06:38:19.000Z,966.41
2023-01-12T06:41:15.890Z,966.45
2023-01-12T06:42:18.895Z,966.42
2023-01-12T06:43:13.884Z,966.5
2023-01-12T06:44:24.340Z,966.47
2023-01-12T06:45:13.906Z,966.49
2023-01-12T06:47:14.398Z,966.51
2023-01-12T06:50:17.869Z,966.51
2023-01-12T06:51:13.891Z,966.5
2023-01-12T06:52:13.903Z,966.48
2023-01-12T06:53:14.908Z,966.41
2023-01-12T06:57:18.467Z,966.3
2023-01-12T06:59:14.114Z,966.29
2023-01-12T07:01:16.513Z,966.28
2023-01-12T07:02:18.140Z,966.3
2023-01-12T07:03:17.994Z,966.27
2023-01-12T07:04:15.053Z,966.29
2023-01-12T07:05:13.999Z,966.34
2023-01-12T07:06:13.924Z,966.31
2023-01-12T07:07:14.033Z,966.32
2023-01-12T07:08:13.941Z,966.3
2023-01-12T07:09:13.957Z,966.25
2023-01-12T07:10:14.046Z,966.23
2023-01-12T07:11:14.002Z,966.21
2023-01-12T07:12:14.078Z,966.25
2023-01-12T07:14:14.097Z,966.23
2023-01-12T07:15:15.077Z,966.22
2023-01-12T07:16:13.960Z,966.2
2023-01-12T07:17:14.125Z,966.22
2023-01-12T07:18:14.092Z,966.2
2023-01-12T07:19:14.056Z,966.18
2023-01-12T07:20:13.965Z,966.15
2023-01-12T07:21:13.960Z,966.14
2023-01-12T07:22:14.101Z,966.06
2023-01-12T07:23:13.979Z,966.05
2023-01-12T07:24:13.978Z,966.1
2023-01-12T07:25:14.057Z,966.08
2023-01-12T07:26:14.044Z,966.09
2023-01-12T07:27:14.100Z,966.08
2023-01-12T07:28:13.979Z,966.07
2023-01-12T07:29:14.156Z,966.12
2023-01-12T07:30:13.994Z,966.11
2023-01-12T07:31:14.014Z,966.08
2023-01-12T07:32:14.130Z,966.06
2023-01-12T07:33:14.130Z,966.02
2023-01-12T07:34:14.074Z,966
2023-01-12T07:35:14.135Z,965.97
2023-01-12T07:36:13.998Z,965.98
2023-01-12T07:37:14.078Z,966.01
2023-01-12T07:38:18.175Z,965.97
2023-01-12T07:39:14.112Z,966.04
2023-01-12T07:40:14.075Z,966.03
2023-01-12T07:41:14.009Z,966
2023-01-12T07:42:14.114Z,966.02
2023-01-12T07:43:14.082Z,966.01
2023-01-12T07:45:14.164Z,966.05
2023-01-12T07:46:14.118Z,966.01
2023-01-12T07:47:14.158Z,966.04
2023-01-12T07:48:14.123Z,966.02
2023-01-12T07:49:14.020Z,966.05
2023-01-12T07:50:14.161Z,966.04
2023-01-12T07:51:14.027Z,966.01
2023-01-12T07:52:14.041Z,966.05
2023-01-12T07:53:14.151Z,966.04
2023-01-12T07:54:14.216Z,965.96
2023-01-12T07:55:14.100Z,966
2023-01-12T07:56:14.035Z,965.96
2023-01-12T07:57:14.047Z,965.93
2023-01-12T07:59:14.035Z,965.97
2023-01-12T08:00:14.142Z,966.04
2023-01-12T08:01:14.202Z,966.02
2023-01-12T08:02:14.139Z,966.01
2023-01-12T08:03:14.227Z,966.05
2023-01-12T08:06:14.157Z,966.02
2023-01-12T08:07:14.212Z,966.03
2023-01-12T08:08:14.093Z,966.05
2023-01-12T08:09:14.067Z,966.1
2023-01-12T08:10:14.122Z,966.08
2023-01-12T08:11:14.186Z,966.01
2023-01-12T08:13:15.457Z,966.06
2023-01-12T08:14:14.216Z,966.04
2023-01-12T08:15:14.164Z,965.97
2023-01-12T08:16:14.377Z,966.03
2023-01-12T08:17:14.203Z,965.98
2023-01-12T08:19:14.132Z,966
2023-01-12T08:20:14.092Z,965.96
2023-01-12T08:21:14.178Z,965.95
2023-01-12T08:22:14.253Z,965.99
2023-01-12T08:23:14.210Z,966.02
2023-01-12T08:24:14.170Z,966.06
2023-01-12T08:25:14.106Z,966.08
2023-01-12T08:26:14.129Z,966.09
2023-01-12T08:27:14.284Z,966.15
2023-01-12T08:28:14.109Z,966.17
2023-01-12T08:29:14.206Z,966.19
2023-01-12T08:30:14.140Z,966.17
2023-01-12T08:31:14.175Z,966.22
2023-01-12T08:32:14.217Z,966.15
2023-01-12T08:33:14.186Z,966.12
2023-01-12T08:34:14.138Z,966.15
2023-01-12T08:35:14.138Z,966.14
2023-01-12T08:36:14.146Z,966.1
2023-01-12T08:37:14.138Z,966.13
2023-01-12T08:38:14.267Z,966.11
2023-01-12T08:39:14.144Z,966.08
2023-01-12T08:40:14.271Z,966.14
2023-01-12T08:41:14.257Z,966.13
2023-01-12T08:43:14.373Z,966.11
2023-01-12T08:44:14.173Z,966.08
2023-01-12T08:45:14.157Z,966.1
2023-01-12T08:46:14.332Z,966.11
2023-01-12T08:47:14.171Z,966.12
2023-01-12T08:48:14.164Z,966.15
2023-01-12T08:49:16.704Z,966.17
2023-01-12T08:50:14.237Z,966.18
2023-01-12T08:51:14.225Z,966.23
2023-01-12T08:52:14.270Z,966.24
2023-01-12T08:53:14.218Z,966.22
2023-01-12T08:54:14.318Z,966.24
2023-01-12T08:55:14.221Z,966.21
2023-01-12T08:56:14.245Z,966.16
2023-01-12T08:57:14.317Z,966.19
2023-01-12T08:58:14.286Z,966.18
2023-01-12T08:59:14.249Z,966.16
2023-01-12T09:00:14.334Z,966.18
2023-01-12T09:01:14.294Z,966.2
2023-01-12T09:02:14.311Z,966.23
2023-01-12T09:03:14.202Z,966.26
2023-01-12T09:04:14.294Z,966.28
2023-01-12T09:05:14.198Z,966.31
2023-01-12T09:06:14.331Z,966.3
2023-01-12T09:07:14.228Z,966.33
2023-01-12T09:08:15.621Z,966.34
2023-01-12T09:09:14.240Z,966.35
2023-01-12T09:10:14.296Z,966.38
2023-01-12T09:11:14.228Z,966.42
2023-01-12T09:12:14.343Z,966.38
2023-01-12T09:14:14.447Z,966.39
2023-01-12T09:15:14.358Z,966.42
2023-01-12T09:16:14.372Z,966.38
2023-01-12T09:17:14.234Z,966.39
2023-01-12T09:18:14.357Z,966.34
2023-01-12T09:19:14.312Z,966.3
2023-01-12T09:20:14.242Z,966.28
2023-01-12T09:23:14.258Z,966.22
2023-01-12T09:24:14.348Z,966.23
2023-01-12T09:25:14.327Z,966.2
2023-01-12T09:26:14.395Z,966.17
2023-01-12T09:27:14.253Z,966.19
2023-01-12T09:28:14.261Z,966.18
2023-01-12T09:29:14.418Z,966.15
2023-01-12T09:30:14.260Z,966.16
2023-01-12T09:31:14.302Z,966.13
2023-01-12T09:32:15.699Z,966.09
2023-01-12T09:33:14.380Z,966.11
2023-01-12T09:34:14.333Z,966.07
2023-01-12T09:35:14.271Z,966.06
2023-01-12T09:36:14.365Z,966.05
2023-01-12T09:37:14.338Z,966.08
2023-01-12T09:38:14.418Z,966.1
2023-01-12T09:41:14.436Z,966.11
2023-01-12T09:42:14.369Z,966.13
2023-01-12T09:43:14.453Z,966.17
2023-01-12T09:44:14.432Z,966.14
2023-01-12T09:45:14.389Z,966.2
2023-01-12T09:46:14.457Z,966.22
2023-01-12T09:47:14.429Z,966.18
2023-01-12T09:48:14.381Z,966.19
2023-01-12T09:49:15.365Z,966.24
2023-01-12T09:50:14.543Z,966.22
2023-01-12T09:51:14.318Z,966.21
2023-01-12T09:52:14.336Z,966.22
2023-01-12T09:53:14.436Z,966.19
2023-01-12T09:54:14.393Z,966.26
2023-01-12T09:55:14.329Z,966.27
2023-01-12T09:56:14.438Z,966.23
2023-01-12T09:57:20.744Z,966.22
2023-01-12T09:58:14.337Z,966.24
2023-01-12T09:59:14.951Z,966.23
2023-01-12T10:00:14.412Z,966.28
2023-01-12T10:01:20.574Z,966.24
2023-01-12T10:02:14.530Z,966.22
2023-01-12T10:03:14.428Z,966.2
2023-01-12T10:04:14.358Z,966.18
2023-01-12T10:05:14.441Z,966.2
2023-01-12T10:07:14.572Z,966.19
2023-01-12T10:09:14.385Z,966.18
2023-01-12T10:10:14.382Z,966.15
2023-01-12T10:11:14.370Z,966.17
2023-01-12T10:12:14.381Z,966.15
2023-01-12T10:13:14.426Z,966.17
2023-01-12T10:14:14.394Z,966.14
2023-01-12T10:15:15.465Z,966.18
2023-01-12T10:16:14.563Z,966.15
2023-01-12T10:18:14.399Z,966.17
2023-01-12T10:19:14.493Z,966.16
2023-01-12T10:20:15.825Z,966.13
2023-01-12T10:21:14.599Z,966.17
2023-01-12T10:22:14.496Z,966.13
2023-01-12T10:24:15.502Z,966.17
2023-01-12T10:25:14.511Z,966.16
2023-01-12T10:26:14.485Z,966.15
2023-01-12T10:27:14.406Z,966.18
2023-01-12T10:28:14.515Z,966.23
2023-01-12T10:30:14.461Z,966.22
2023-01-12T10:31:14.576Z,966.25
2023-01-12T10:32:14.476Z,966.32
2023-01-12T10:33:14.418Z,966.27
2023-01-12T10:35:14.483Z,966.24
2023-01-12T10:36:14.557Z,966.19
2023-01-12T10:37:14.429Z,966.22
2023-01-12T10:38:14.595Z,966.21
2023-01-12T10:39:14.437Z,966.24
2023-01-12T10:40:14.513Z,966.27
2023-01-12T10:42:14.525Z,966.28
2023-01-12T10:45:14.458Z,966.29
2023-01-12T10:46:14.636Z,966.2
2023-01-12T10:47:14.607Z,966.21
2023-01-12T10:48:14.452Z,966.23
2023-01-12T10:49:14.553Z,966.27
2023-01-12T10:50:14.498Z,966.22
2023-01-12T10:51:14.576Z,966.24
2023-01-12T10:52:14.536Z,966.22
2023-01-12T10:54:14.583Z,966.18
2023-01-12T10:55:14.466Z,966.14
2023-01-12T10:56:14.468Z,966.13
2023-01-12T10:58:14.488Z,966.14
2023-01-12T10:59:14.489Z,966.15
2023-01-12T11:00:14.579Z,966.18
2023-01-12T11:01:14.562Z,966.16
2023-01-12T11:04:14.558Z,966.15
2023-01-12T11:05:14.509Z,966.12
2023-01-12T11:06:14.614Z,966.1
2023-01-12T11:07:14.488Z,966.08
2023-01-12T11:08:14.508Z,966.1
2023-01-12T11:09:14.583Z,966.08
2023-01-12T11:10:14.553Z,966.01
2023-01-12T11:11:15.039Z,965.99
2023-01-12T11:12:14.616Z,966.05
2023-01-12T11:13:14.659Z,966.02
2023-01-12T11:14:16.908Z,966
2023-01-12T11:16:14.630Z,965.98
2023-01-12T11:17:14.554Z,965.91
2023-01-12T11:18:14.629Z,965.97
2023-01-12T11:19:14.530Z,965.96
2023-01-12T11:20:14.659Z,965.92
2023-01-12T11:21:14.615Z,965.97
2023-01-12T11:22:14.678Z,965.91
2023-01-12T11:23:14.665Z,965.95
2023-01-12T11:24:14.624Z,965.9
2023-01-12T11:25:14.551Z,965.91
2023-01-12T11:26:14.555Z,965.96
2023-01-12T11:27:14.728Z,965.91
2023-01-12T11:28:14.624Z,965.85
2023-01-12T11:29:14.659Z,965.84
2023-01-12T11:30:14.699Z,965.85
2023-01-12T11:31:14.661Z,965.8
2023-01-12T11:33:14.571Z,965.77
2023-01-12T11:35:14.679Z,965.71
2023-01-12T11:36:14.654Z,965.72
2023-01-12T11:37:14.568Z,965.66
2023-01-12T11:38:14.658Z,965.71
2023-01-12T11:39:14.561Z,965.68
2023-01-12T11:40:15.884Z,965.67
2023-01-12T11:41:14.681Z,965.63
2023-01-12T11:42:14.595Z,965.59
2023-01-12T11:43:14.580Z,965.56
2023-01-12T11:44:14.585Z,965.58
2023-01-12T11:45:14.736Z,965.5
2023-01-12T11:46:14.628Z,965.52
2023-01-12T11:47:14.671Z,965.49
2023-01-12T11:48:14.745Z,965.45
2023-01-12T11:49:14.761Z,965.43
2023-01-12T11:50:14.595Z,965.45
2023-01-12T11:51:14.641Z,965.41
2023-01-12T11:52:14.719Z,965.37
2023-01-12T11:53:14.679Z,965.41
2023-01-12T11:54:14.600Z,965.44
2023-01-12T11:55:14.712Z,965.39
2023-01-12T11:57:14.902Z,965.37
2023-01-12T11:58:14.755Z,965.33
2023-01-12T11:59:14.695Z,965.32
2023-01-12T12:00:14.628Z,965.31
2023-01-12T12:01:14.664Z,965.26
2023-01-12T12:02:14.724Z,965.25
2023-01-12T12:03:14.764Z,965.26
2023-01-12T12:04:14.780Z,965.28
2023-01-12T12:05:14.696Z,965.25
2023-01-12T12:07:14.758Z,965.23
2023-01-12T12:08:14.702Z,965.2
2023-01-12T12:09:19.032Z,965.23
2023-01-12T12:10:14.752Z,965.2
2023-01-12T12:11:14.656Z,965.17
2023-01-12T12:12:14.775Z,965.11
2023-01-12T12:13:14.798Z,965.15
2023-01-12T12:14:14.820Z,965.09
2023-01-12T12:15:14.679Z,965.11
2023-01-12T12:16:14.710Z,965.08
2023-01-12T12:17:14.823Z,965.04
2023-01-12T12:18:14.670Z,965.09
2023-01-12T12:19:14.755Z,965.02
2023-01-12T12:20:14.712Z,965.03
2023-01-12T12:21:14.671Z,965.01
2023-01-12T12:22:14.809Z,964.98
2023-01-12T12:24:14.759Z,965.01
2023-01-12T12:25:14.879Z,964.97
2023-01-12T12:26:14.721Z,965
2023-01-12T12:27:14.683Z,964.96
2023-01-12T12:28:14.819Z,964.97
2023-01-12T12:29:14.755Z,964.99
2023-01-12T12:30:14.834Z,964.95
2023-01-12T12:31:14.864Z,964.93
2023-01-12T12:32:14.837Z,964.95
2023-01-12T12:33:14.808Z,964.98
2023-01-12T12:34:14.743Z,964.97
2023-01-12T12:35:14.860Z,964.93
2023-01-12T12:36:14.813Z,964.92
2023-01-12T12:37:14.768Z,964.91
2023-01-12T12:38:14.847Z,964.89
2023-01-12T12:39:14.815Z,964.85
2023-01-12T12:40:14.823Z,964.84
2023-01-12T12:42:14.731Z,964.85
2023-01-12T12:46:14.896Z,964.79
2023-01-12T12:47:14.755Z,964.82
2023-01-12T12:48:14.769Z,964.8
2023-01-12T12:49:14.943Z,964.79
2023-01-12T12:50:14.877Z,964.81
2023-01-12T12:51:14.823Z,964.78
2023-01-12T12:52:14.850Z,964.79
2023-01-12T12:53:14.887Z,964.78
2023-01-12T12:54:14.841Z,964.77
2023-01-12T12:55:15.016Z,964.76
2023-01-12T12:56:14.762Z,964.75
2023-01-12T12:57:14.760Z,964.68
2023-01-12T12:58:14.820Z,964.67
2023-01-12T12:59:14.770Z,964.7
2023-01-12T13:00:14.817Z,964.65
2023-01-12T13:01:18.929Z,964.64
2023-01-12T13:02:14.871Z,964.62
2023-01-12T13:04:15.834Z,964.61
2023-01-12T13:05:14.922Z,964.63
2023-01-12T13:06:14.866Z,964.62
2023-01-12T13:07:14.843Z,964.54
2023-01-12T13:08:14.885Z,964.58
2023-01-12T13:09:14.852Z,964.6
2023-01-12T13:10:14.846Z,964.57
2023-01-12T13:11:14.890Z,964.53
2023-01-12T13:12:14.785Z,964.49
2023-01-12T13:14:14.977Z,964.45
2023-01-12T13:15:14.812Z,964.46
2023-01-12T13:16:14.926Z,964.45
2023-01-12T13:17:14.900Z,964.5
2023-01-12T13:18:14.830Z,964.47
2023-01-12T13:19:14.810Z,964.52
2023-01-12T13:20:24.780Z,964.5
2023-01-12T13:21:16.090Z,964.52
2023-01-12T13:22:14.812Z,964.55
2023-01-12T13:23:14.829Z,964.49
2023-01-12T13:24:14.973Z,964.52
2023-01-12T13:25:15.004Z,964.48
2023-01-12T13:26:14.951Z,964.44
2023-01-12T13:27:14.840Z,964.42
2023-01-12T13:28:14.954Z,964.46
2023-01-12T13:29:14.911Z,964.42
2023-01-12T13:30:14.978Z,964.38
2023-01-12T13:31:14.877Z,964.39
2023-01-12T13:32:14.920Z,964.38
2023-01-12T13:33:14.855Z,964.39
2023-01-12T13:35:14.916Z,964.38
2023-01-12T13:36:14.849Z,964.43
2023-01-12T13:38:15.048Z,964.45
2023-01-12T13:39:15.006Z,964.47
2023-01-12T13:40:14.868Z,964.52
2023-01-12T13:41:14.966Z,964.46
2023-01-12T13:42:14.867Z,964.45
2023-01-12T13:43:14.890Z,964.44
2023-01-12T13:44:15.036Z,964.45
2023-01-12T13:46:15.021Z,964.41
2023-01-12T13:47:14.973Z,964.4
2023-01-12T13:48:15.244Z,964.39
2023-01-12T13:49:15.041Z,964.38
2023-01-12T13:50:14.943Z,964.4
2023-01-12T13:51:14.895Z,964.41
2023-01-12T13:52:14.983Z,964.46
2023-01-12T13:57:14.993Z,964.48
2023-01-12T13:58:14.993Z,964.46
2023-01-12T13:59:15.059Z,964.43
2023-01-12T14:00:14.907Z,964.44
2023-01-12T14:01:14.962Z,964.41
2023-01-12T14:02:14.935Z,964.36
2023-01-12T14:03:15.034Z,964.33
2023-01-12T14:05:14.946Z,964.31
2023-01-12T14:06:15.033Z,964.32
2023-01-12T14:07:14.925Z,964.33
2023-01-12T14:10:15.369Z,964.4
2023-01-12T14:11:14.972Z,964.38
2023-01-12T14:12:14.943Z,964.35
2023-01-12T14:13:15.005Z,964.38
2023-01-12T14:14:14.967Z,964.36
2023-01-12T14:15:15.049Z,964.33
2023-01-12T14:16:14.976Z,964.28
2023-01-12T14:17:16.334Z,964.29
2023-01-12T14:18:15.054Z,964.31
2023-01-12T14:19:14.945Z,964.28
2023-01-12T14:20:15.106Z,964.29
2023-01-12T14:21:15.047Z,964.2
2023-01-12T14:22:16.229Z,964.19
2023-01-12T14:23:14.965Z,964.2
2023-01-12T14:24:15.050Z,964.17
2023-01-12T14:25:14.966Z,964.18
2023-01-12T14:26:15.083Z,964.16
2023-01-12T14:29:15.048Z,964.13
2023-01-12T14:30:15.104Z,964.1
2023-01-12T14:31:15.183Z,964.12
2023-01-12T14:32:15.109Z,964.07